sensor_id;sensor_type;location;lat;lon;timestamp;pressure;altitude;pressure_sealevel;temperature;humidity
69351;BME280;57106;51.446;-2.606;2023-02-22T00:00:52;101243.76;;;9.82;73.08
69351;BME280;57106;51.446;-2.606;2023-02-22T00:03:19;101242.86;;;9.75;73.82
69351;BME280;57106;51.446;-2.606;2023-02-22T00:05:43;101241.18;;;9.92;72.43
69351;BME280;57106;51.446;-2.606;2023-02-22T00:08:07;101238.56;;;9.68;73.26
69351;BME280;57106;51.446;-2.606;2023-02-22T00:10:33;101238.32;;;9.45;73.82
69351;BME280;57106;51.446;-2.606;2023-02-22T00:12:59;101237.88;;;9.62;73.46
69351;BME280;57106;51.446;-2.606;2023-02-22T00:15:24;101238.67;;;9.41;73.83
69351;BME280;57106;51.446;-2.606;2023-02-22T00:17:49;101238.64;;;9.51;74.18
69351;BME280;57106;51.446;-2.606;2023-02-22T00:20:16;101235.40;;;9.59;73.71
69351;BME280;57106;51.446;-2.606;2023-02-22T00:22:41;101237.94;;;9.43;74.36
69351;BME280;57106;51.446;-2.606;2023-02-22T00:25:05;101234.15;;;9.50;74.57
69351;BME280;57106;51.446;-2.606;2023-02-22T00:27:31;101230.50;;;9.49;74.68
69351;BME280;57106;51.446;-2.606;2023-02-22T00:29:56;101231.00;;;9.40;74.45
69351;BME280;57106;51.446;-2.606;2023-02-22T00:32:22;101227.79;;;9.35;74.40
69351;BME280;57106;51.446;-2.606;2023-02-22T00:34:50;101229.56;;;9.40;74.48
69351;BME280;57106;51.446;-2.606;2023-02-22T00:39:38;101219.61;;;9.54;74.02
69351;BME280;57106;51.446;-2.606;2023-02-22T01:28:08;101175.30;;;9.41;74.94
69351;BME280;57106;51.446;-2.606;2023-02-22T01:30:34;101170.62;;;9.50;74.66
69351;BME280;57106;51.446;-2.606;2023-02-22T01:32:59;101172.00;;;9.57;74.61
69351;BME280;57106;51.446;-2.606;2023-02-22T01:35:29;101169.59;;;9.54;74.74
69351;BME280;57106;51.446;-2.606;2023-02-22T01:37:50;101168.46;;;9.44;75.03
69351;BME280;57106;51.446;-2.606;2023-02-22T01:40:17;101168.33;;;9.41;75.58
69351;BME280;57106;51.446;-2.606;2023-02-22T01:42:41;101168.28;;;9.54;75.36
69351;BME280;57106;51.446;-2.606;2023-02-22T01:47:31;101167.23;;;9.39;75.35
69351;BME280;57106;51.446;-2.606;2023-02-22T01:49:57;101165.66;;;9.49;75.19
69351;BME280;57106;51.446;-2.606;2023-02-22T01:54:51;101157.50;;;9.40;75.32
69351;BME280;57106;51.446;-2.606;2023-02-22T01:57:17;101155.53;;;9.57;74.61
69351;BME280;57106;51.446;-2.606;2023-02-22T01:59:42;101153.51;;;9.51;74.17
69351;BME280;57106;51.446;-2.606;2023-02-22T02:02:05;101150.60;;;9.54;74.39
69351;BME280;57106;51.446;-2.606;2023-02-22T02:04:31;101146.00;;;9.46;74.48
69351;BME280;57106;51.446;-2.606;2023-02-22T02:07:02;101140.22;;;9.38;75.12
69351;BME280;57106;51.446;-2.606;2023-02-22T02:09:29;101140.04;;;9.30;74.79
69351;BME280;57106;51.446;-2.606;2023-02-22T02:11:48;101136.37;;;9.17;75.59
69351;BME280;57106;51.446;-2.606;2023-02-22T02:14:13;101141.09;;;9.38;75.19
69351;BME280;57106;51.446;-2.606;2023-02-22T02:16:42;101136.38;;;9.14;75.60
69351;BME280;57106;51.446;-2.606;2023-02-22T02:19:08;101135.09;;;9.18;75.55
69351;BME280;57106;51.446;-2.606;2023-02-22T02:21:43;101131.16;;;9.03;76.50
69351;BME280;57106;51.446;-2.606;2023-02-22T02:24:08;101131.11;;;9.09;75.56
69351;BME280;57106;51.446;-2.606;2023-02-22T02:26:32;101129.19;;;9.02;75.88
69351;BME280;57106;51.446;-2.606;2023-02-22T02:31:30;101130.21;;;9.02;75.55
69351;BME280;57106;51.446;-2.606;2023-02-22T02:33:41;101127.95;;;9.05;75.67
69351;BME280;57106;51.446;-2.606;2023-02-22T02:36:06;101130.29;;;9.08;75.50
69351;BME280;57106;51.446;-2.606;2023-02-22T02:38:33;101122.45;;;9.25;75.38
69351;BME280;57106;51.446;-2.606;2023-02-22T02:41:01;101119.41;;;9.14;75.08
69351;BME280;57106;51.446;-2.606;2023-02-22T02:43:26;101118.93;;;9.34;74.77
69351;BME280;57106;51.446;-2.606;2023-02-22T02:45:48;101115.36;;;9.33;74.50
69351;BME280;57106;51.446;-2.606;2023-02-22T02:48:13;101111.84;;;9.27;74.60
69351;BME280;57106;51.446;-2.606;2023-02-22T02:50:40;101109.23;;;9.40;74.21
69351;BME280;57106;51.446;-2.606;2023-02-22T02:53:05;101102.67;;;9.28;74.68
69351;BME280;57106;51.446;-2.606;2023-02-22T02:55:30;101098.34;;;9.45;74.23
69351;BME280;57106;51.446;-2.606;2023-02-22T02:57:53;101090.33;;;9.38;74.27
69351;BME280;57106;51.446;-2.606;2023-02-22T03:00:21;101087.55;;;9.53;74.00
69351;BME280;57106;51.446;-2.606;2023-02-22T03:02:53;101088.35;;;9.31;74.35
69351;BME280;57106;51.446;-2.606;2023-02-22T03:05:28;101085.97;;;9.41;74.12
69351;BME280;57106;51.446;-2.606;2023-02-22T03:07:44;101083.59;;;9.33;74.81
69351;BME280;57106;51.446;-2.606;2023-02-22T03:10:11;101088.17;;;9.34;74.92
69351;BME280;57106;51.446;-2.606;2023-02-22T03:12:34;101085.15;;;9.40;74.14
69351;BME280;57106;51.446;-2.606;2023-02-22T03:14:58;101079.29;;;9.52;73.69
69351;BME280;57106;51.446;-2.606;2023-02-22T03:17:22;101074.37;;;9.58;73.64
69351;BME280;57106;51.446;-2.606;2023-02-22T03:19:49;101074.36;;;9.45;73.68
69351;BME280;57106;51.446;-2.606;2023-02-22T03:22:10;101073.12;;;9.51;73.63
69351;BME280;57106;51.446;-2.606;2023-02-22T03:24:38;101070.17;;;9.52;73.75
69351;BME280;57106;51.446;-2.606;2023-02-22T03:27:02;101067.34;;;9.52;74.28
69351;BME280;57106;51.446;-2.606;2023-02-22T03:29:25;101061.28;;;9.51;74.69
69351;BME280;57106;51.446;-2.606;2023-02-22T03:31:53;101060.83;;;9.65;74.10
69351;BME280;57106;51.446;-2.606;2023-02-22T03:34:18;101061.32;;;9.50;74.40
69351;BME280;57106;51.446;-2.606;2023-02-22T03:36:46;101060.21;;;9.44;73.79
69351;BME280;57106;51.446;-2.606;2023-02-22T03:39:08;101060.09;;;9.53;73.39
69351;BME280;57106;51.446;-2.606;2023-02-22T03:41:31;101062.43;;;9.52;73.31
69351;BME280;57106;51.446;-2.606;2023-02-22T03:44:00;101066.49;;;9.57;72.94
69351;BME280;57106;51.446;-2.606;2023-02-22T03:46:22;101059.69;;;9.41;73.75
69351;BME280;57106;51.446;-2.606;2023-02-22T03:48:50;101055.59;;;9.46;73.74
69351;BME280;57106;51.446;-2.606;2023-02-22T03:51:14;101048.10;;;9.53;73.65
69351;BME280;57106;51.446;-2.606;2023-02-22T03:53:39;101048.48;;;9.70;72.43
69351;BME280;57106;51.446;-2.606;2023-02-22T03:56:07;101047.71;;;9.61;72.91
69351;BME280;57106;51.446;-2.606;2023-02-22T03:58:31;101049.86;;;9.66;72.84
69351;BME280;57106;51.446;-2.606;2023-02-22T04:00:55;101049.38;;;9.70;73.01
69351;BME280;57106;51.446;-2.606;2023-02-22T04:03:21;101043.49;;;9.69;73.01
69351;BME280;57106;51.446;-2.606;2023-02-22T04:05:46;101042.85;;;9.65;73.26
69351;BME280;57106;51.446;-2.606;2023-02-22T04:08:11;101042.33;;;9.73;73.02
69351;BME280;57106;51.446;-2.606;2023-02-22T04:10:37;101041.52;;;9.71;72.89
69351;BME280;57106;51.446;-2.606;2023-02-22T04:13:02;101034.88;;;9.54;73.49
69351;BME280;57106;51.446;-2.606;2023-02-22T04:15:28;101034.86;;;9.62;73.81
69351;BME280;57106;51.446;-2.606;2023-02-22T04:17:53;101032.19;;;9.65;73.16
69351;BME280;57106;51.446;-2.606;2023-02-22T04:20:19;101027.07;;;9.58;73.72
69351;BME280;57106;51.446;-2.606;2023-02-22T04:22:43;101024.39;;;9.70;73.13
69351;BME280;57106;51.446;-2.606;2023-02-22T04:25:09;101028.96;;;9.59;73.35
69351;BME280;57106;51.446;-2.606;2023-02-22T04:27:34;101028.99;;;9.57;73.72
69351;BME280;57106;51.446;-2.606;2023-02-22T04:29:59;101025.45;;;9.67;73.53
69351;BME280;57106;51.446;-2.606;2023-02-22T04:32:24;101026.79;;;9.64;73.53
69351;BME280;57106;51.446;-2.606;2023-02-22T04:34:50;101025.13;;;9.60;73.34
69351;BME280;57106;51.446;-2.606;2023-02-22T04:37:15;101028.07;;;9.63;73.00
69351;BME280;57106;51.446;-2.606;2023-02-22T04:39:41;101028.77;;;9.67;72.40
69351;BME280;57106;51.446;-2.606;2023-02-22T04:42:06;101027.94;;;9.47;72.98
69351;BME280;57106;51.446;-2.606;2023-02-22T04:44:32;101025.26;;;9.52;72.96
69351;BME280;57106;51.446;-2.606;2023-02-22T04:46:56;101022.18;;;9.48;73.50
69351;BME280;57106;51.446;-2.606;2023-02-22T04:49:22;101021.21;;;9.56;72.88
69351;BME280;57106;51.446;-2.606;2023-02-22T04:51:48;101023.64;;;9.58;72.62
69351;BME280;57106;51.446;-2.606;2023-02-22T04:54:14;101024.15;;;9.56;72.71
69351;BME280;57106;51.446;-2.606;2023-02-22T04:56:39;101024.22;;;9.37;73.33
69351;BME280;57106;51.446;-2.606;2023-02-22T04:59:04;101025.25;;;9.26;73.94
69351;BME280;57106;51.446;-2.606;2023-02-22T05:01:31;101023.69;;;9.41;73.52
69351;BME280;57106;51.446;-2.606;2023-02-22T05:03:55;101019.74;;;9.53;73.37
69351;BME280;57106;51.446;-2.606;2023-02-22T05:06:21;101017.27;;;9.56;73.46
69351;BME280;57106;51.446;-2.606;2023-02-22T05:08:46;101014.40;;;9.57;73.53
69351;BME280;57106;51.446;-2.606;2023-02-22T05:11:11;101008.95;;;9.65;73.29
69351;BME280;57106;51.446;-2.606;2023-02-22T05:13:37;101004.73;;;9.67;73.21
69351;BME280;57106;51.446;-2.606;2023-02-22T05:16:02;101006.43;;;9.57;74.02
69351;BME280;57106;51.446;-2.606;2023-02-22T05:18:28;101007.41;;;9.72;73.07
69351;BME280;57106;51.446;-2.606;2023-02-22T05:20:54;101009.83;;;9.71;72.92
69351;BME280;57106;51.446;-2.606;2023-02-22T05:23:19;101008.60;;;9.69;72.77
69351;BME280;57106;51.446;-2.606;2023-02-22T05:25:44;101010.84;;;9.54;73.32
69351;BME280;57106;51.446;-2.606;2023-02-22T05:28:12;101008.96;;;9.59;72.46
69351;BME280;57106;51.446;-2.606;2023-02-22T05:30:36;101007.19;;;9.54;73.50
69351;BME280;57106;51.446;-2.606;2023-02-22T05:33:01;101006.42;;;9.65;72.89
69351;BME280;57106;51.446;-2.606;2023-02-22T05:35:27;101007.03;;;9.63;73.01
69351;BME280;57106;51.446;-2.606;2023-02-22T05:37:57;101006.46;;;9.76;72.76
69351;BME280;57106;51.446;-2.606;2023-02-22T05:40:17;101004.06;;;9.66;72.82
69351;BME280;57106;51.446;-2.606;2023-02-22T05:42:42;101008.06;;;9.41;73.26
69351;BME280;57106;51.446;-2.606;2023-02-22T05:45:11;101006.91;;;9.49;73.71
69351;BME280;57106;51.446;-2.606;2023-02-22T05:47:33;101006.84;;;9.52;73.72
69351;BME280;57106;51.446;-2.606;2023-02-22T05:49:59;101002.61;;;9.69;72.79
69351;BME280;57106;51.446;-2.606;2023-02-22T05:52:24;100999.65;;;9.47;73.54
69351;BME280;57106;51.446;-2.606;2023-02-22T05:54:50;101000.81;;;9.60;73.06
69351;BME280;57106;51.446;-2.606;2023-02-22T05:57:15;100998.06;;;9.53;73.16
69351;BME280;57106;51.446;-2.606;2023-02-22T05:59:41;100996.78;;;9.63;73.26
69351;BME280;57106;51.446;-2.606;2023-02-22T06:02:06;100995.68;;;9.52;73.92
69351;BME280;57106;51.446;-2.606;2023-02-22T06:04:32;100996.92;;;9.70;73.36
69351;BME280;57106;51.446;-2.606;2023-02-22T06:06:57;101000.60;;;9.67;73.35
69351;BME280;57106;51.446;-2.606;2023-02-22T06:09:23;101002.64;;;9.63;73.83
69351;BME280;57106;51.446;-2.606;2023-02-22T06:11:48;100999.35;;;9.74;72.87
69351;BME280;57106;51.446;-2.606;2023-02-22T06:14:14;100997.28;;;9.57;73.37
69351;BME280;57106;51.446;-2.606;2023-02-22T06:16:39;100998.05;;;9.55;74.03
69351;BME280;57106;51.446;-2.606;2023-02-22T06:19:05;100997.44;;;9.49;74.17
69351;BME280;57106;51.446;-2.606;2023-02-22T06:21:31;100995.75;;;9.28;74.88
69351;BME280;57106;51.446;-2.606;2023-02-22T06:23:56;100993.93;;;9.30;74.75
69351;BME280;57106;51.446;-2.606;2023-02-22T06:26:21;100992.59;;;9.45;74.86
69351;BME280;57106;51.446;-2.606;2023-02-22T06:28:46;100989.39;;;9.41;74.65
69351;BME280;57106;51.446;-2.606;2023-02-22T06:31:11;100988.76;;;9.65;74.16
69351;BME280;57106;51.446;-2.606;2023-02-22T06:33:36;100986.31;;;9.45;74.75
69351;BME280;57106;51.446;-2.606;2023-02-22T06:36:03;100986.31;;;9.35;75.33
69351;BME280;57106;51.446;-2.606;2023-02-22T06:38:27;100990.12;;;9.41;75.47
69351;BME280;57106;51.446;-2.606;2023-02-22T06:40:54;100989.99;;;9.56;75.07
69351;BME280;57106;51.446;-2.606;2023-02-22T06:43:18;100990.45;;;9.47;75.52
69351;BME280;57106;51.446;-2.606;2023-02-22T06:45:44;100986.82;;;9.57;74.98
69351;BME280;57106;51.446;-2.606;2023-02-22T06:48:10;100989.45;;;9.53;74.98
69351;BME280;57106;51.446;-2.606;2023-02-22T06:50:35;100991.11;;;9.53;75.34
69351;BME280;57106;51.446;-2.606;2023-02-22T06:53:01;100994.99;;;9.70;74.83
69351;BME280;57106;51.446;-2.606;2023-02-22T06:55:27;100995.37;;;9.51;75.04
69351;BME280;57106;51.446;-2.606;2023-02-22T06:57:51;100995.75;;;9.46;75.44
69351;BME280;57106;51.446;-2.606;2023-02-22T07:00:17;100996.61;;;9.43;75.74
69351;BME280;57106;51.446;-2.606;2023-02-22T07:02:41;100996.03;;;9.55;75.36
69351;BME280;57106;51.446;-2.606;2023-02-22T07:05:07;101000.26;;;9.62;75.30
69351;BME280;57106;51.446;-2.606;2023-02-22T07:07:32;101000.03;;;9.68;75.42
69351;BME280;57106;51.446;-2.606;2023-02-22T07:09:58;101004.08;;;9.62;75.47
69351;BME280;57106;51.446;-2.606;2023-02-22T07:12:22;101005.65;;;9.82;74.64
69351;BME280;57106;51.446;-2.606;2023-02-22T07:14:48;101005.45;;;9.81;75.03
69351;BME280;57106;51.446;-2.606;2023-02-22T07:17:14;101004.82;;;9.54;75.80
69351;BME280;57106;51.446;-2.606;2023-02-22T07:19:39;101004.54;;;9.68;75.93
69351;BME280;57106;51.446;-2.606;2023-02-22T07:22:04;101007.36;;;9.73;75.62
69351;BME280;57106;51.446;-2.606;2023-02-22T07:24:30;101006.73;;;9.90;75.22
69351;BME280;57106;51.446;-2.606;2023-02-22T07:26:56;101008.34;;;9.56;76.20
69351;BME280;57106;51.446;-2.606;2023-02-22T07:29:21;101010.23;;;9.36;77.45
69351;BME280;57106;51.446;-2.606;2023-02-22T07:31:47;101015.89;;;9.31;78.43
69351;BME280;57106;51.446;-2.606;2023-02-22T07:34:12;101015.16;;;9.31;78.56
69351;BME280;57106;51.446;-2.606;2023-02-22T07:36:37;101018.36;;;9.15;79.57
69351;BME280;57106;51.446;-2.606;2023-02-22T07:39:02;101018.35;;;9.22;79.34
69351;BME280;57106;51.446;-2.606;2023-02-22T07:41:28;101016.35;;;9.32;79.43
69351;BME280;57106;51.446;-2.606;2023-02-22T07:43:53;101017.20;;;9.39;79.59
69351;BME280;57106;51.446;-2.606;2023-02-22T07:46:18;101019.54;;;9.48;79.32
69351;BME280;57106;51.446;-2.606;2023-02-22T07:48:44;101024.23;;;9.57;78.89
69351;BME280;57106;51.446;-2.606;2023-02-22T07:51:09;101024.65;;;9.60;78.88
69351;BME280;57106;51.446;-2.606;2023-02-22T07:53:35;101027.21;;;9.53;79.51
69351;BME280;57106;51.446;-2.606;2023-02-22T07:56:02;101036.74;;;9.65;79.59
69351;BME280;57106;51.446;-2.606;2023-02-22T07:58:27;101044.15;;;9.65;79.48
69351;BME280;57106;51.446;-2.606;2023-02-22T08:00:51;101048.86;;;9.66;78.99
69351;BME280;57106;51.446;-2.606;2023-02-22T08:03:18;101054.73;;;9.77;79.28
69351;BME280;57106;51.446;-2.606;2023-02-22T08:05:45;101056.08;;;9.56;79.57
69351;BME280;57106;51.446;-2.606;2023-02-22T08:08:08;101062.85;;;9.82;79.70
69351;BME280;57106;51.446;-2.606;2023-02-22T08:10:34;101064.42;;;9.75;79.51
69351;BME280;57106;51.446;-2.606;2023-02-22T08:12:59;101068.07;;;9.78;79.45
69351;BME280;57106;51.446;-2.606;2023-02-22T08:15:26;101069.76;;;9.89;79.26
69351;BME280;57106;51.446;-2.606;2023-02-22T08:17:50;101067.34;;;9.85;79.03
69351;BME280;57106;51.446;-2.606;2023-02-22T08:20:15;101067.97;;;10.21;78.26
69351;BME280;57106;51.446;-2.606;2023-02-22T08:22:43;101070.67;;;10.14;77.96
69351;BME280;57106;51.446;-2.606;2023-02-22T08:25:07;101072.96;;;10.12;78.14
69351;BME280;57106;51.446;-2.606;2023-02-22T08:27:32;101073.46;;;10.06;77.86
69351;BME280;57106;51.446;-2.606;2023-02-22T08:29:57;101076.70;;;10.02;78.60
69351;BME280;57106;51.446;-2.606;2023-02-22T08:32:23;101075.34;;;10.11;78.22
69351;BME280;57106;51.446;-2.606;2023-02-22T08:34:49;101076.69;;;10.04;78.67
69351;BME280;57106;51.446;-2.606;2023-02-22T08:37:15;101079.93;;;10.33;78.22
69351;BME280;57106;51.446;-2.606;2023-02-22T08:39:40;101082.73;;;10.11;77.71
69351;BME280;57106;51.446;-2.606;2023-02-22T08:42:05;101085.99;;;10.30;77.43
69351;BME280;57106;51.446;-2.606;2023-02-22T08:44:31;101091.13;;;10.33;76.94
69351;BME280;57106;51.446;-2.606;2023-02-22T08:46:57;101090.76;;;10.21;76.75
69351;BME280;57106;51.446;-2.606;2023-02-22T08:49:22;101091.25;;;10.11;76.34
69351;BME280;57106;51.446;-2.606;2023-02-22T08:51:49;101094.46;;;9.85;77.04
69351;BME280;57106;51.446;-2.606;2023-02-22T08:54:13;101098.20;;;10.01;76.66
69351;BME280;57106;51.446;-2.606;2023-02-22T08:56:39;101103.62;;;10.04;76.68
69351;BME280;57106;51.446;-2.606;2023-02-22T08:59:04;101105.69;;;9.91;77.00
69351;BME280;57106;51.446;-2.606;2023-02-22T09:01:30;101106.59;;;9.79;76.55
69351;BME280;57106;51.446;-2.606;2023-02-22T09:03:55;101104.46;;;9.70;76.27
69351;BME280;57106;51.446;-2.606;2023-02-22T09:06:21;101106.87;;;9.76;76.57
69351;BME280;57106;51.446;-2.606;2023-02-22T09:08:45;101109.06;;;9.65;76.28
69351;BME280;57106;51.446;-2.606;2023-02-22T09:11:11;101114.28;;;9.67;76.40
69351;BME280;57106;51.446;-2.606;2023-02-22T09:13:36;101117.22;;;9.68;76.38
69351;BME280;57106;51.446;-2.606;2023-02-22T09:16:01;101120.79;;;9.75;75.92
69351;BME280;57106;51.446;-2.606;2023-02-22T09:18:28;101121.80;;;10.03;74.99
69351;BME280;57106;51.446;-2.606;2023-02-22T09:20:53;101125.54;;;9.62;75.16
69351;BME280;57106;51.446;-2.606;2023-02-22T09:23:19;101132.07;;;9.46;75.91
69351;BME280;57106;51.446;-2.606;2023-02-22T09:25:44;101136.69;;;9.59;75.16
69351;BME280;57106;51.446;-2.606;2023-02-22T09:28:09;101136.05;;;9.58;75.19
69351;BME280;57106;51.446;-2.606;2023-02-22T09:30:35;101138.35;;;9.21;75.46
69351;BME280;57106;51.446;-2.606;2023-02-22T09:33:02;101137.30;;;9.09;75.36
69351;BME280;57106;51.446;-2.606;2023-02-22T09:35:26;101134.74;;;9.12;75.89
69351;BME280;57106;51.446;-2.606;2023-02-22T09:37:58;101137.04;;;9.20;75.66
69351;BME280;57106;51.446;-2.606;2023-02-22T09:40:17;101140.30;;;9.09;75.52
69351;BME280;57106;51.446;-2.606;2023-02-22T09:42:47;101140.48;;;9.18;75.37
69351;BME280;57106;51.446;-2.606;2023-02-22T09:45:13;101143.99;;;9.15;75.12
69351;BME280;57106;51.446;-2.606;2023-02-22T09:47:38;101143.98;;;9.33;73.34
69351;BME280;57106;51.446;-2.606;2023-02-22T09:50:01;101143.54;;;9.12;73.18
69351;BME280;57106;51.446;-2.606;2023-02-22T09:52:27;101144.31;;;9.49;72.81
69351;BME280;57106;51.446;-2.606;2023-02-22T09:54:53;101148.90;;;9.08;72.71
69351;BME280;57106;51.446;-2.606;2023-02-22T09:57:18;101147.71;;;9.15;72.91
69351;BME280;57106;51.446;-2.606;2023-02-22T09:59:45;101151.16;;;9.08;73.29
69351;BME280;57106;51.446;-2.606;2023-02-22T10:02:14;101159.28;;;9.04;72.60
69351;BME280;57106;51.446;-2.606;2023-02-22T10:04:38;101150.48;;;9.06;72.41
69351;BME280;57106;51.446;-2.606;2023-02-22T10:07:03;101156.62;;;9.41;72.08
69351;BME280;57106;51.446;-2.606;2023-02-22T10:09:24;101161.90;;;9.47;71.36
69351;BME280;57106;51.446;-2.606;2023-02-22T10:11:53;101161.00;;;9.25;70.11
69351;BME280;57106;51.446;-2.606;2023-02-22T10:26:23;101167.12;;;9.78;68.84
69351;BME280;57106;51.446;-2.606;2023-02-22T10:33:40;101164.42;;;10.10;65.83
69351;BME280;57106;51.446;-2.606;2023-02-22T10:36:02;101164.56;;;10.21;66.05
69351;BME280;57106;51.446;-2.606;2023-02-22T10:38:29;101168.52;;;10.23;65.17
69351;BME280;57106;51.446;-2.606;2023-02-22T10:40:55;101168.71;;;10.23;66.00
69351;BME280;57106;51.446;-2.606;2023-02-22T10:43:19;101165.14;;;10.50;65.46
69351;BME280;57106;51.446;-2.606;2023-02-22T10:45:45;101172.51;;;10.40;63.57
69351;BME280;57106;51.446;-2.606;2023-02-22T10:50:37;101176.86;;;10.29;64.30
69351;BME280;57106;51.446;-2.606;2023-02-22T10:53:00;101175.08;;;10.14;64.52
69351;BME280;57106;51.446;-2.606;2023-02-22T10:55:25;101176.59;;;10.47;65.81
69351;BME280;57106;51.446;-2.606;2023-02-22T10:57:58;101180.32;;;10.64;64.51
69351;BME280;57106;51.446;-2.606;2023-02-22T11:00:19;101179.81;;;10.72;63.30
69351;BME280;57106;51.446;-2.606;2023-02-22T11:02:50;101180.66;;;10.68;63.26
69351;BME280;57106;51.446;-2.606;2023-02-22T11:07:34;101190.10;;;10.50;63.14
69351;BME280;57106;51.446;-2.606;2023-02-22T11:10:00;101189.13;;;10.46;62.67
69351;BME280;57106;51.446;-2.606;2023-02-22T11:12:29;101190.19;;;10.57;63.10
69351;BME280;57106;51.446;-2.606;2023-02-22T11:14:49;101191.06;;;10.68;61.32
69351;BME280;57106;51.446;-2.606;2023-02-22T11:17:21;101192.22;;;10.26;60.92
69351;BME280;57106;51.446;-2.606;2023-02-22T11:19:45;101195.44;;;10.32;60.68
69351;BME280;57106;51.446;-2.606;2023-02-22T11:22:10;101200.02;;;9.93;61.02
69351;BME280;57106;51.446;-2.606;2023-02-22T11:24:31;101191.92;;;10.32;61.36
69351;BME280;57106;51.446;-2.606;2023-02-22T11:26:59;101193.43;;;10.28;61.56
69351;BME280;57106;51.446;-2.606;2023-02-22T11:29:25;101193.52;;;10.16;61.12
69351;BME280;57106;51.446;-2.606;2023-02-22T11:31:49;101194.18;;;10.41;61.11
69351;BME280;57106;51.446;-2.606;2023-02-22T11:34:28;101202.56;;;9.93;61.12
69351;BME280;57106;51.446;-2.606;2023-02-22T11:36:40;101200.00;;;9.66;62.07
69351;BME280;57106;51.446;-2.606;2023-02-22T11:39:05;101205.06;;;9.49;61.77
69351;BME280;57106;51.446;-2.606;2023-02-22T11:41:30;101206.28;;;9.65;61.43
69351;BME280;57106;51.446;-2.606;2023-02-22T11:46:22;101211.07;;;9.96;60.92
69351;BME280;57106;51.446;-2.606;2023-02-22T11:48:55;101208.22;;;9.83;60.01
69351;BME280;57106;51.446;-2.606;2023-02-22T11:51:18;101199.00;;;10.14;60.33
69351;BME280;57106;51.446;-2.606;2023-02-22T11:53:47;101208.42;;;10.08;59.92
69351;BME280;57106;51.446;-2.606;2023-02-22T11:56:11;101200.09;;;10.37;60.21
69351;BME280;57106;51.446;-2.606;2023-02-22T11:58:34;101200.97;;;10.86;59.24
69351;BME280;57106;51.446;-2.606;2023-02-22T12:00:56;101200.48;;;10.52;59.23
69351;BME280;57106;51.446;-2.606;2023-02-22T12:03:28;101197.28;;;10.56;58.35
69351;BME280;57106;51.446;-2.606;2023-02-22T12:05:54;101200.49;;;10.53;57.93
69351;BME280;57106;51.446;-2.606;2023-02-22T12:08:17;101202.01;;;10.74;58.41
69351;BME280;57106;51.446;-2.606;2023-02-22T12:10:44;101206.89;;;11.03;57.63
69351;BME280;57106;51.446;-2.606;2023-02-22T12:13:08;101208.16;;;10.65;58.37
69351;BME280;57106;51.446;-2.606;2023-02-22T12:15:29;101209.26;;;10.50;58.37
69351;BME280;57106;51.446;-2.606;2023-02-22T12:17:57;101209.94;;;10.49;57.86
69351;BME280;57106;51.446;-2.606;2023-02-22T12:20:18;101215.23;;;10.11;59.53
69351;BME280;57106;51.446;-2.606;2023-02-22T12:23:02;101208.30;;;10.42;58.26
69351;BME280;57106;51.446;-2.606;2023-02-22T12:25:15;101210.71;;;10.66;59.07
69351;BME280;57106;51.446;-2.606;2023-02-22T12:27:35;101206.51;;;10.76;57.86
69351;BME280;57106;51.446;-2.606;2023-02-22T12:30:01;101205.93;;;10.93;57.82
69351;BME280;57106;51.446;-2.606;2023-02-22T12:32:28;101208.10;;;11.15;56.50
69351;BME280;57106;51.446;-2.606;2023-02-22T12:34:51;101207.49;;;10.90;56.85
69351;BME280;57106;51.446;-2.606;2023-02-22T12:37:18;101208.70;;;11.10;57.44
69351;BME280;57106;51.446;-2.606;2023-02-22T12:39:48;101203.50;;;10.73;57.83
69351;BME280;57106;51.446;-2.606;2023-02-22T12:42:11;101201.83;;;10.81;58.45
69351;BME280;57106;51.446;-2.606;2023-02-22T12:44:33;101204.64;;;11.02;58.15
69351;BME280;57106;51.446;-2.606;2023-02-22T12:46:56;101201.61;;;10.93;57.07
69351;BME280;57106;51.446;-2.606;2023-02-22T12:49:27;101201.97;;;10.99;57.60
69351;BME280;57106;51.446;-2.606;2023-02-22T12:51:50;101204.49;;;11.15;58.40
69351;BME280;57106;51.446;-2.606;2023-02-22T12:54:19;101203.14;;;10.98;58.05
69351;BME280;57106;51.446;-2.606;2023-02-22T12:56:40;101200.94;;;11.23;58.55
69351;BME280;57106;51.446;-2.606;2023-02-22T12:59:09;101200.67;;;11.14;58.64
69351;BME280;57106;51.446;-2.606;2023-02-22T13:01:34;101197.60;;;11.16;57.44
69351;BME280;57106;51.446;-2.606;2023-02-22T13:03:55;101198.97;;;11.22;57.33
69351;BME280;57106;51.446;-2.606;2023-02-22T13:06:35;101198.97;;;11.53;57.36
69351;BME280;57106;51.446;-2.606;2023-02-22T13:08:57;101206.08;;;11.67;56.90
69351;BME280;57106;51.446;-2.606;2023-02-22T13:11:16;101204.39;;;11.35;57.44
69351;BME280;57106;51.446;-2.606;2023-02-22T13:13:42;101203.00;;;11.47;57.56
69351;BME280;57106;51.446;-2.606;2023-02-22T13:16:08;101203.01;;;11.56;57.38
69351;BME280;57106;51.446;-2.606;2023-02-22T13:18:32;101198.93;;;11.64;56.58
69351;BME280;57106;51.446;-2.606;2023-02-22T13:20:58;101201.73;;;11.80;56.82
69351;BME280;57106;51.446;-2.606;2023-02-22T13:23:27;101202.60;;;11.66;56.32
69351;BME280;57106;51.446;-2.606;2023-02-22T13:25:48;101200.46;;;11.79;57.27
69351;BME280;57106;51.446;-2.606;2023-02-22T13:28:17;101202.00;;;11.61;57.10
69351;BME280;57106;51.446;-2.606;2023-02-22T13:30:38;101201.04;;;11.37;56.53
69351;BME280;57106;51.446;-2.606;2023-02-22T13:33:13;101197.49;;;11.52;56.89
69351;BME280;57106;51.446;-2.606;2023-02-22T13:35:39;101192.21;;;11.23;56.77
69351;BME280;57106;51.446;-2.606;2023-02-22T13:38:03;101193.28;;;11.02;57.45
69351;BME280;57106;51.446;-2.606;2023-02-22T13:42:56;101195.80;;;10.89;57.30
69351;BME280;57106;51.446;-2.606;2023-02-22T13:45:21;101198.50;;;10.97;57.98
69351;BME280;57106;51.446;-2.606;2023-02-22T13:47:43;101202.15;;;10.92;58.50
69351;BME280;57106;51.446;-2.606;2023-02-22T13:50:20;101203.23;;;10.76;58.60
69351;BME280;57106;51.446;-2.606;2023-02-22T13:52:28;101204.02;;;10.48;59.54
69351;BME280;57106;51.446;-2.606;2023-02-22T13:54:53;101199.67;;;10.23;60.27
69351;BME280;57106;51.446;-2.606;2023-02-22T13:57:19;101200.35;;;10.13;60.78
69351;BME280;57106;51.446;-2.606;2023-02-22T13:59:41;101203.73;;;10.17;61.65